ADDS METAR Data INFO
IDs: Format: Raw Decoded Include TAF

Data at: 0031 UTC 23 Oct 2017

KDRI 230015Z AUTO 00000KT 10SM CLR 16/16 A3008 RMK AO2 T01610155
KDRI 222355Z AUTO 00000KT 10SM CLR 17/16 A3007 RMK AO2 60005 T01670160 10207 20165
KDRI 222335Z AUTO 00000KT 10SM CLR 18/15 A3007 RMK AO2 T01760148
KDRI 222315Z AUTO 32003KT 10SM CLR 18/14 A3007 RMK AO2 T01820142
KDRI 222255Z AUTO 32004KT 10SM CLR 19/14 A3007 RMK AO2 T01900138
KDRI 222235Z AUTO 32006KT 10SM CLR 19/14 A3006 RMK AO2 T01940138
KDRI 222215Z AUTO 32008KT 10SM SCT030 20/14 A3006 RMK AO2 T02040138
KDRI 222155Z AUTO 31011G15KT 10SM SCT032 20/14 A3006 RMK AO2 T02030139
KDRI 222135Z AUTO 31008KT 10SM SCT026 BKN032 20/14 A3006 RMK AO2 T02000138
KDRI 222115Z AUTO 30011G16KT 10SM OVC029 19/14 A3007 RMK AO2 T01910141
KDRI 222055Z AUTO 30010KT 10SM SCT013 SCT020 BKN029 20/14 A3007 RMK AO2 60005 T01970144
KDRI 222035Z AUTO 29010KT 10SM SCT012 SCT019 SCT023 21/16 A3006 RMK AO2 T02050160
KDRI 222015Z AUTO 28006KT 10SM SCT010 20/18 A3006 RMK AO2 T01960182
KDRI 221955Z AUTO 29005KT 10SM CLR 19/18 A3006 RMK AO2 T01860178
KDRI 221935Z AUTO 30003KT 10SM CLR 18/17 A3005 RMK AO2 T01770170
KDRI 221915Z AUTO 36007KT 10SM SCT120 17/16 A3002 RMK AO2 T01690162
KDRI 221855Z AUTO 08006KT 10SM SCT120 17/16 A2996 RMK AO2 P0005 T01660160
KDRI 221835Z AUTO 11004KT 10SM SCT090 SCT110 17/16 A3005 RMK AO2 P0005 T01650159
KDRI 221815Z AUTO 12008KT 7SM RA SCT040 BKN090 OVC110 17/16 A3009 RMK AO2 P0004 T01680161
KDRI 221755Z AUTO 17007KT 10SM DZ SCT035 BKN060 OVC110 17/16 A3013 RMK AO2 P0001 60039 T01700162 10216 20157
KDRI 221735Z AUTO 14003KT 10SM -RA SCT033 SCT042 OVC110 17/16 A3012 RMK AO2 P0001 T01650158
KDRI 221715Z AUTO 00000KT 10SM -RA OVC100 17/16 A3012 RMK AO2 P0001 T01660159
KDRI 221655Z AUTO 08003KT 10SM OVC110 17/16 A3014 RMK AO2 LTG DSNT SW T01680161
KDRI 221635Z AUTO 07003KT 10SM -RA OVC100 17/16 A3016 RMK AO2 T01660159
KDRI 221615Z AUTO 00000KT 10SM -RA OVC100 16/16 A3018 RMK AO2 T01640157
KDRI 221555Z AUTO 35004KT 10SM -DZ SCT070 OVC090 17/16 A3018 RMK AO2 LTG DSNT E AND SE P0001 T01650157
KDRI 221535Z AUTO 01005KT 10SM -RA SCT065 SCT070 OVC080 16/16 A3018 RMK AO2 P0001 T01620155
KDRI 221515Z AUTO 02005KT 10SM -DZ OVC080 16/15 A3019 RMK AO2 LTG DSNT W T01600153
KDRI 221455Z AUTO 02006KT 10SM -RA OVC080 16/15 A3018 RMK AO2 P0004 60036 T01600152
KDRI 221435Z AUTO 36011G14KT 10SM RA OVC070 16/15 A3017 RMK AO2 LTG DSNT E THRU S P0003 T01600152
KDRI 221415Z AUTO 01009G15KT 320V030 10SM VCTSRA BKN070 OVC080 16/15 A3017 RMK AO2 LTG DSNT SE AND S P0001 T01580151
KDRI 221355Z AUTO 36013G18KT 7SM VCTSRA SCT012 BKN070 OVC080 16/15 A3015 RMK AO2 LTG DSNT SE P0013 T01580151
KDRI 221335Z AUTO 35009KT 7SM TSRA SCT010 SCT034 OVC060 16/15 A3017 RMK AO2 LTG DSNT E THRU SW P0009 T01580151
KDRI 221315Z AUTO 34010G19KT 7SM VCTSRA SCT011 SCT022 OVC060 16/15 A3016 RMK AO2 LTG DSNT ALQS P0003 T01580151
KDRI 221255Z AUTO 36010G23KT 5SM +TSRA SCT009 BKN014 OVC050 16/15 A3014 RMK AO2 LTG DSNT ALQS P0017 T01580151
KDRI 221235Z AUTO 01014G27KT 4SM VCTSRA SCT010 BKN015 OVC032 16/16 A3013 RMK AO2 LTG DSNT ALQS P0004 T01630156
KDRI 221215Z AUTO 33018G26KT 10SM OVC008 22/21 A3011 RMK AO2 LTG DSNT W THRU NE T02160208
KDRI 221155Z AUTO 36003KT 10SM OVC008 22/21 A3005 RMK AO2 LTG DSNT SW THRU N 70007 T02150208 10227 20215
KDRI 221135Z AUTO 11005KT 10SM OVC006 22/21 A3005 RMK AO2 LTG DSNT NW T02180210
KDRI 221115Z AUTO 00000KT 10SM OVC006 22/21 A3005 RMK AO2 T02170210
KDRI 221055Z AUTO 12004KT 10SM OVC008 22/21 A3004 RMK AO2 LTG DSNT NW T02200211
KDRI 221035Z AUTO 00000KT 10SM OVC008 22/21 A3004 RMK AO2 LTG DSNT W T02200211
KDRI 221015Z AUTO 11004KT 10SM OVC008 22/21 A3004 RMK AO2 LTG DSNT SE AND NW T02200211
KDRI 220955Z AUTO 11003KT 10SM OVC008 22/21 A3002 RMK AO2 LTG DSNT SE T02190211
KDRI 220935Z AUTO 13005KT 10SM OVC008 22/21 A3001 RMK AO2 T02200212
KDRI 220915Z AUTO 13005KT 10SM OVC008 22/21 A3001 RMK AO2 T02200212
KDRI 220855Z AUTO 13006KT 10SM OVC008 22/21 A3001 RMK AO2 LTG DSNT E T02200212
KDRI 220835Z AUTO 12005KT 10SM OVC010 22/21 A3001 RMK AO2 LTG DSNT SE T02210213
KDRI 220815Z AUTO 12005KT 10SM OVC010 22/21 A3001 RMK AO2 T02210213
KDRI 220755Z AUTO 13005KT 10SM OVC010 22/22 A3001 RMK AO2 LTG DSNT E T02220215
KDRI 220735Z AUTO 12005KT 10SM OVC010 22/22 A3001 RMK AO2 LTG DSNT SE T02220215
KDRI 220715Z AUTO 11006KT 10SM OVC010 22/22 A3001 RMK AO2 LTG DSNT SE T02230215
KDRI 220655Z AUTO 12008KT 10SM OVC010 23/22 A3001 RMK AO2 LTG DSNT SE T02250217
KDRI 220635Z AUTO 11004KT 10SM OVC010 23/22 A3002 RMK AO2 LTG DSNT E AND SE T02260218
KDRI 220615Z AUTO 11005KT 10SM OVC010 23/22 A3002 RMK AO2 LTG DSNT SE T02270220
KDRI 220555Z AUTO 11005KT 10SM OVC010 23/22 A3001 RMK AO2 LTG DSNT E AND SE T02280220 10250 20228 403130202
KDRI 220535Z AUTO 11007KT 070V140 10SM OVC007 23/22 A3001 RMK AO2 LTG DSNT E T02290221
KDRI 220515Z AUTO 12006KT 10SM OVC009 23/22 A3001 RMK AO2 LTG DSNT E T02300221
KDRI 220455Z AUTO 12007KT 10SM OVC009 23/22 A3002 RMK AO2 LTG DSNT E AND SE T02300222
KDRI 220435Z AUTO 11007KT 10SM OVC011 23/23 A3002 RMK AO2 LTG DSNT E AND SE T02320225
KDRI 220415Z AUTO 12009KT 10SM OVC013 24/23 A3003 RMK AO2 LTG DSNT E T02350227
KDRI 220355Z AUTO 10004KT 10SM OVC013 24/23 A3004 RMK AO2 LTG DSNT E T02400232
KDRI 220335Z AUTO 10004KT 10SM BKN015 BKN026 BKN050 24/23 A3003 RMK AO2 LTG DSNT E T02410233
KDRI 220315Z AUTO 12004KT 10SM SCT013 BKN022 BKN050 24/24 A3003 RMK AO2 LTG DSNT E T02420235
KDRI 220255Z AUTO 12004KT 10SM VCTS SCT013 BKN022 24/24 A3003 RMK AO2 LTG DSNT NE AND E T02420235
KDRI 220235Z AUTO 11004KT 10SM SCT024 24/24 A3001 RMK AO2 LTG DSNT E T02420235
KDRI 220215Z AUTO 12003KT 10SM SCT022 SCT027 25/24 A3001 RMK AO2 LTG DSNT E T02450237
KDRI 220155Z AUTO 13004KT 10SM VCTS SCT024 25/24 A3001 RMK AO2 LTG DSNT NE AND E T02450237
KDRI 220135Z AUTO 11003KT 10SM SCT026 25/24 A3000 RMK AO2 LTG DSNT NE AND E T02470240
KDRI 220115Z AUTO 13004KT 10SM CLR 25/24 A2999 RMK AO2 LTG DSNT NE AND E T02470240
KDRI 220055Z AUTO 13003KT 10SM CLR 25/24 A2997 RMK AO2 LTG DSNT NE THRU SE T02450237
KDRI 220035Z AUTO 12003KT 10SM CLR 25/24 A2997 RMK AO2 LTG DSNT E AND SE T02460238
KDRI 220015Z AUTO 13004KT 10SM CLR 25/24 A2997 RMK AO2 LTG DSNT NE AND E T02500241
KDRI 212355Z AUTO 12004KT 10SM SCT070 25/24 A2996 RMK AO2 LTG DSNT NE 60007 T02510243 10313 20251
KDRI 212335Z AUTO 14005KT 10SM OVC070 26/25 A2996 RMK AO2 LTG DSNT NE THRU SE T02560248
KDRI 212315Z AUTO 14005KT 10SM OVC070 26/25 A2996 RMK AO2 LTG DSNT NE THRU SE T02570250
KDRI 212255Z AUTO 14004KT 10SM OVC070 26/24 A2996 RMK AO2 LTG DSNT NE T02620243
KDRI 212235Z AUTO 15003KT 10SM VCTS BKN060 OVC070 26/24 A2996 RMK AO2 LTG DSNT NE THRU SE T02590243
KDRI 212215Z AUTO 17003KT 10SM VCTS SCT031 SCT038 OVC060 26/24 A2997 RMK AO2 LTG DSNT NE AND E T02550238
KDRI 212155Z AUTO 19005KT 10SM -RA SCT031 BKN044 OVC060 26/23 A2997 RMK AO2 LTG DSNT NE AND E P0007 T02570233
KDRI 212135Z AUTO 19008KT 4SM +TSRA SCT046 BKN050 OVC065 26/24 A2998 RMK AO2 LTG DSNT ALQS P0006 T02550244
KDRI 212115Z AUTO 17008KT 10SM SCT031 BKN050 BKN060 29/21 A2997 RMK AO2 LTG DSNT E THRU SW T02860211
KDRI 212055Z AUTO 15006KT 10SM SCT029 SCT048 BKN070 29/21 A2996 RMK AO2 LTG DSNT E T02900208
KDRI 212035Z AUTO 17005KT 10SM SCT047 BKN050 OVC070 28/22 A2997 RMK AO2 LTG DSNT E T02810216
KDRI 212015Z AUTO 14009KT 10SM SCT031 BKN037 OVC070 29/21 A2997 RMK AO2 LTG DSNT E T02900207
KDRI 211955Z AUTO 16010G14KT 10SM BKN031 OVC037 30/21 A2997 RMK AO2 T02990205
KDRI 211935Z AUTO 13007KT 10SM BKN030 30/21 A2997 RMK AO2 T02960211
KDRI 211915Z AUTO 14009KT 10SM BKN030 BKN042 30/21 A2997 RMK AO2 T02980207
KDRI 211855Z AUTO 13008KT 10SM SCT022 SCT026 SCT036 30/21 A2998 RMK AO2 T02990211
KDRI 211835Z AUTO 16013KT 10SM SCT021 SCT055 29/22 A2999 RMK AO2 T02910217
KDRI 211815Z AUTO 13009KT 10SM SCT055 29/22 A3000 RMK AO2 T02870222
KDRI 211755Z AUTO 13006KT 10SM SCT055 27/25 A3001 RMK AO2 T02710250 10272 20227
KDRI 211735Z AUTO 14005KT 10SM SCT011 SCT020 SCT026 26/25 A3002 RMK AO2 T02640252
KDRI 211715Z AUTO 13006KT 10SM SCT013 BKN023 BKN041 26/25 A3003 RMK AO2 T02620254
KDRI 211655Z AUTO 15003KT 10SM -RA BKN013 BKN021 OVC050 25/25 A3004 RMK AO2 T02530245
KDRI 211635Z AUTO 13005KT 10SM BKN013 BKN019 OVC046 26/25 A3005 RMK AO2 T02600250
KDRI 211615Z AUTO 13004KT 5SM -RA BKN013 BKN018 OVC060 26/25 A3006 RMK AO2 T02550246
KDRI 211555Z AUTO 14005KT 10SM OVC015 26/24 A3006 RMK AO2 LTG DSNT SE T02580240
KDRI 211535Z AUTO 12006KT 10SM OVC012 25/24 A3006 RMK AO2 T02530243
KDRI 211515Z AUTO 12006KT 10SM OVC010 25/24 A3006 RMK AO2 T02510242
KDRI 211455Z AUTO 14006KT 10SM OVC008 25/24 A3005 RMK AO2 T02460239
KDRI 211435Z AUTO 12006KT 10SM OVC008 24/24 A3005 RMK AO2 T02440236
KDRI 211415Z AUTO 13005KT 10SM OVC008 24/23 A3005 RMK AO2 T02400231
KDRI 211355Z AUTO 12006KT 10SM OVC008 24/23 A3004 RMK AO2 T02360228
KDRI 211335Z AUTO 13004KT 10SM OVC006 23/23 A3004 RMK AO2 LTG DSNT SE T02320225
KDRI 211315Z AUTO 00000KT 7SM OVC006 23/22 A3003 RMK AO2 T02300221
KDRI 211255Z AUTO 00000KT 7SM OVC006 23/22 A3002 RMK AO2 T02270220
KDRI 211235Z AUTO 00000KT 7SM OVC006 23/22 A3001 RMK AO2 T02270220